Fort Ritner, Indiana
Current Conditions -  °F | °C
As of 6:53 AM on Monday 24 Nov 2014 (Local Time) from KBMG Reporting Station
Broken Clouds Broken Clouds  
Wind Chill: 55°   Ceiling: 6000
Heat Index: 55°   Visibility: 10mi
Dew Point: 52°   Wind: 16mph
Humidity: 89%   Direction: 220°SW
Pressure: 29.22"   Gusts: 24mph
Location:  38.77°N, 86.28°W
Report Text: KBMG 241153Z 22014G21KT 10SM FEW019 BKN060 BKN110 13/11 A2922 RMK AO2 PK WND 22033/1121 LTG DSNT NE-SE RAE53 TSE03B07E22 SLP892 P0012 60019 70164 T01280111 10150 20128 51005
Loading
Personal Weather Stations






























Interactive Weather Map New forecast layout! Learn more

10-Day Weather Forecast

Advertisements
Track Severe Weather on mobile